sensor_id;sensor_type;location;lat;lon;timestamp;pressure;altitude;pressure_sealevel;temperature;humidity
12203;BME280;6164;42.178;24.622;2023-07-02T00:00:27;98897.09;;;21.02;100.00
12203;BME280;6164;42.178;24.622;2023-07-02T00:02:54;98900.03;;;21.01;100.00
12203;BME280;6164;42.178;24.622;2023-07-02T00:05:20;98887.13;;;20.98;100.00
12203;BME280;6164;42.178;24.622;2023-07-02T00:07:47;98895.91;;;20.93;100.00
12203;BME280;6164;42.178;24.622;2023-07-02T00:10:13;98898.53;;;20.88;100.00
12203;BME280;6164;42.178;24.622;2023-07-02T00:12:39;98890.69;;;20.81;100.00
12203;BME280;6164;42.178;24.622;2023-07-02T00:15:06;98891.94;;;20.74;100.00
12203;BME280;6164;42.178;24.622;2023-07-02T00:17:34;98890.50;;;20.66;100.00
12203;BME280;6164;42.178;24.622;2023-07-02T00:20:05;98882.06;;;20.58;100.00
12203;BME280;6164;42.178;24.622;2023-07-02T00:22:39;98884.09;;;20.46;100.00
12203;BME280;6164;42.178;24.622;2023-07-02T00:25:07;98884.81;;;20.41;100.00
12203;BME280;6164;42.178;24.622;2023-07-02T00:27:33;98874.25;;;20.35;100.00
12203;BME280;6164;42.178;24.622;2023-07-02T00:30:00;98886.38;;;20.37;100.00
12203;BME280;6164;42.178;24.622;2023-07-02T00:32:26;98891.81;;;20.42;100.00
12203;BME280;6164;42.178;24.622;2023-07-02T00:34:54;98904.22;;;20.48;100.00
12203;BME280;6164;42.178;24.622;2023-07-02T00:37:20;98900.53;;;20.54;100.00
12203;BME280;6164;42.178;24.622;2023-07-02T00:39:47;98897.38;;;20.57;100.00
12203;BME280;6164;42.178;24.622;2023-07-02T00:42:13;98890.13;;;20.58;100.00
12203;BME280;6164;42.178;24.622;2023-07-02T00:44:41;98882.38;;;20.61;100.00
12203;BME280;6164;42.178;24.622;2023-07-02T00:47:08;98888.31;;;20.63;100.00
12203;BME280;6164;42.178;24.622;2023-07-02T00:49:35;98896.13;;;20.65;100.00
12203;BME280;6164;42.178;24.622;2023-07-02T00:52:03;98887.25;;;20.64;100.00
12203;BME280;6164;42.178;24.622;2023-07-02T00:54:30;98882.56;;;20.55;100.00
12203;BME280;6164;42.178;24.622;2023-07-02T00:56:57;98886.38;;;20.59;100.00
12203;BME280;6164;42.178;24.622;2023-07-02T00:59:27;98889.06;;;20.59;100.00
12203;BME280;6164;42.178;24.622;2023-07-02T01:01:54;98888.50;;;20.57;100.00
12203;BME280;6164;42.178;24.622;2023-07-02T01:04:22;98889.50;;;20.51;100.00
12203;BME280;6164;42.178;24.622;2023-07-02T01:06:52;98885.69;;;20.47;100.00
12203;BME280;6164;42.178;24.622;2023-07-02T01:09:23;98877.41;;;20.48;100.00
12203;BME280;6164;42.178;24.622;2023-07-02T01:11:52;98875.78;;;20.47;100.00
12203;BME280;6164;42.178;24.622;2023-07-02T01:14:21;98872.59;;;20.50;100.00
12203;BME280;6164;42.178;24.622;2023-07-02T01:16:48;98863.97;;;20.27;100.00
12203;BME280;6164;42.178;24.622;2023-07-02T01:19:18;98859.69;;;20.09;100.00
12203;BME280;6164;42.178;24.622;2023-07-02T01:21:46;98858.06;;;20.08;100.00
12203;BME280;6164;42.178;24.622;2023-07-02T01:24:13;98869.13;;;19.95;100.00
12203;BME280;6164;42.178;24.622;2023-07-02T01:26:40;98871.66;;;19.85;100.00
12203;BME280;6164;42.178;24.622;2023-07-02T01:29:13;98872.72;;;19.84;100.00
12203;BME280;6164;42.178;24.622;2023-07-02T01:31:40;98866.28;;;19.85;100.00
12203;BME280;6164;42.178;24.622;2023-07-02T01:34:06;98865.81;;;19.88;100.00
12203;BME280;6164;42.178;24.622;2023-07-02T01:36:34;98856.41;;;19.86;100.00
12203;BME280;6164;42.178;24.622;2023-07-02T01:39:02;98853.28;;;19.94;100.00
12203;BME280;6164;42.178;24.622;2023-07-02T01:41:28;98847.22;;;19.98;100.00
12203;BME280;6164;42.178;24.622;2023-07-02T01:43:55;98848.09;;;20.04;100.00
12203;BME280;6164;42.178;24.622;2023-07-02T01:46:22;98842.22;;;20.07;100.00
12203;BME280;6164;42.178;24.622;2023-07-02T01:48:48;98840.13;;;20.09;100.00
12203;BME280;6164;42.178;24.622;2023-07-02T01:51:15;98842.03;;;20.13;100.00
12203;BME280;6164;42.178;24.622;2023-07-02T01:53:41;98841.25;;;20.13;100.00
12203;BME280;6164;42.178;24.622;2023-07-02T01:56:09;98844.28;;;20.16;100.00
12203;BME280;6164;42.178;24.622;2023-07-02T01:58:35;98845.06;;;20.17;100.00
12203;BME280;6164;42.178;24.622;2023-07-02T02:01:02;98844.34;;;20.21;100.00
12203;BME280;6164;42.178;24.622;2023-07-02T02:03:28;98840.34;;;20.24;100.00
12203;BME280;6164;42.178;24.622;2023-07-02T02:05:55;98847.06;;;20.26;100.00
12203;BME280;6164;42.178;24.622;2023-07-02T02:08:21;98832.06;;;20.25;100.00
12203;BME280;6164;42.178;24.622;2023-07-02T02:10:48;98825.16;;;20.29;100.00
12203;BME280;6164;42.178;24.622;2023-07-02T02:13:15;98832.19;;;20.35;100.00
12203;BME280;6164;42.178;24.622;2023-07-02T02:15:42;98827.41;;;20.37;100.00
12203;BME280;6164;42.178;24.622;2023-07-02T02:18:08;98824.47;;;20.39;100.00
12203;BME280;6164;42.178;24.622;2023-07-02T02:20:35;98835.38;;;20.32;100.00
12203;BME280;6164;42.178;24.622;2023-07-02T02:23:01;98839.59;;;20.28;100.00
12203;BME280;6164;42.178;24.622;2023-07-02T02:25:28;98853.56;;;20.30;100.00
12203;BME280;6164;42.178;24.622;2023-07-02T02:27:54;98851.28;;;20.39;100.00
12203;BME280;6164;42.178;24.622;2023-07-02T02:30:22;98859.38;;;20.44;100.00
12203;BME280;6164;42.178;24.622;2023-07-02T02:32:48;98858.06;;;20.46;100.00
12203;BME280;6164;42.178;24.622;2023-07-02T02:35:15;98869.91;;;20.50;100.00
12203;BME280;6164;42.178;24.622;2023-07-02T02:37:41;98867.25;;;20.50;100.00
12203;BME280;6164;42.178;24.622;2023-07-02T02:40:08;98864.56;;;20.50;100.00
12203;BME280;6164;42.178;24.622;2023-07-02T02:42:35;98857.03;;;20.47;100.00
12203;BME280;6164;42.178;24.622;2023-07-02T02:45:01;98866.41;;;20.50;100.00
12203;BME280;6164;42.178;24.622;2023-07-02T02:47:29;98871.28;;;20.53;100.00
12203;BME280;6164;42.178;24.622;2023-07-02T02:49:56;98878.41;;;20.42;100.00
12203;BME280;6164;42.178;24.622;2023-07-02T02:52:22;98876.09;;;20.29;100.00
12203;BME280;6164;42.178;24.622;2023-07-02T02:54:49;98878.13;;;20.22;100.00
12203;BME280;6164;42.178;24.622;2023-07-02T02:57:18;98888.28;;;20.04;100.00
12203;BME280;6164;42.178;24.622;2023-07-02T02:59:44;98899.91;;;19.93;100.00
12203;BME280;6164;42.178;24.622;2023-07-02T03:02:11;98908.34;;;19.85;100.00
12203;BME280;6164;42.178;24.622;2023-07-02T03:04:38;98900.41;;;19.73;100.00
12203;BME280;6164;42.178;24.622;2023-07-02T03:07:06;98893.91;;;19.69;100.00
12203;BME280;6164;42.178;24.622;2023-07-02T03:09:32;98905.34;;;19.64;100.00
12203;BME280;6164;42.178;24.622;2023-07-02T03:11:59;98906.00;;;19.55;100.00
12203;BME280;6164;42.178;24.622;2023-07-02T03:14:25;98909.78;;;19.42;100.00
12203;BME280;6164;42.178;24.622;2023-07-02T03:16:52;98914.50;;;19.35;100.00
12203;BME280;6164;42.178;24.622;2023-07-02T03:19:19;98924.63;;;19.22;100.00
12203;BME280;6164;42.178;24.622;2023-07-02T03:21:47;98928.72;;;19.13;100.00
12203;BME280;6164;42.178;24.622;2023-07-02T03:24:13;98927.50;;;19.04;100.00
12203;BME280;6164;42.178;24.622;2023-07-02T03:26:41;98935.34;;;18.94;100.00
12203;BME280;6164;42.178;24.622;2023-07-02T03:29:08;98935.94;;;18.84;100.00
12203;BME280;6164;42.178;24.622;2023-07-02T03:31:34;98940.72;;;18.82;100.00
12203;BME280;6164;42.178;24.622;2023-07-02T03:34:01;98936.75;;;18.85;100.00
12203;BME280;6164;42.178;24.622;2023-07-02T03:36:28;98940.81;;;18.87;100.00
12203;BME280;6164;42.178;24.622;2023-07-02T03:38:56;98929.75;;;18.95;100.00
12203;BME280;6164;42.178;24.622;2023-07-02T03:41:22;98932.63;;;19.05;100.00
12203;BME280;6164;42.178;24.622;2023-07-02T03:43:49;98934.19;;;19.18;100.00
12203;BME280;6164;42.178;24.622;2023-07-02T03:46:15;98938.25;;;19.20;100.00
12203;BME280;6164;42.178;24.622;2023-07-02T03:48:42;98926.25;;;19.23;100.00
12203;BME280;6164;42.178;24.622;2023-07-02T03:51:08;98925.56;;;19.27;100.00
12203;BME280;6164;42.178;24.622;2023-07-02T03:53:35;98929.16;;;19.33;100.00
12203;BME280;6164;42.178;24.622;2023-07-02T03:56:03;98937.28;;;19.38;100.00
12203;BME280;6164;42.178;24.622;2023-07-02T03:58:29;98932.66;;;19.33;100.00
12203;BME280;6164;42.178;24.622;2023-07-02T04:00:56;98937.94;;;19.45;100.00
12203;BME280;6164;42.178;24.622;2023-07-02T04:03:22;98948.97;;;19.48;100.00
12203;BME280;6164;42.178;24.622;2023-07-02T04:05:48;98941.59;;;19.55;100.00
12203;BME280;6164;42.178;24.622;2023-07-02T04:08:15;98939.50;;;19.57;100.00
12203;BME280;6164;42.178;24.622;2023-07-02T04:10:41;98938.22;;;19.60;100.00
12203;BME280;6164;42.178;24.622;2023-07-02T04:13:09;98930.41;;;19.58;100.00
12203;BME280;6164;42.178;24.622;2023-07-02T04:15:36;98928.63;;;19.64;100.00
12203;BME280;6164;42.178;24.622;2023-07-02T04:18:02;98940.16;;;19.64;100.00
12203;BME280;6164;42.178;24.622;2023-07-02T04:20:29;98940.25;;;19.70;100.00
12203;BME280;6164;42.178;24.622;2023-07-02T04:22:55;98942.09;;;19.86;100.00
12203;BME280;6164;42.178;24.622;2023-07-02T04:25:22;98948.94;;;19.93;100.00
12203;BME280;6164;42.178;24.622;2023-07-02T04:27:49;98946.66;;;20.02;100.00
12203;BME280;6164;42.178;24.622;2023-07-02T04:30:17;98949.72;;;20.10;100.00
12203;BME280;6164;42.178;24.622;2023-07-02T04:32:43;98947.38;;;20.14;100.00
12203;BME280;6164;42.178;24.622;2023-07-02T04:35:10;98935.69;;;20.20;100.00
12203;BME280;6164;42.178;24.622;2023-07-02T04:37:37;98933.84;;;20.20;100.00
12203;BME280;6164;42.178;24.622;2023-07-02T04:40:04;98929.44;;;20.31;100.00
12203;BME280;6164;42.178;24.622;2023-07-02T04:42:32;98946.88;;;20.33;100.00
12203;BME280;6164;42.178;24.622;2023-07-02T04:45:02;98953.56;;;20.31;100.00
12203;BME280;6164;42.178;24.622;2023-07-02T04:47:30;98963.47;;;20.30;100.00
12203;BME280;6164;42.178;24.622;2023-07-02T04:49:57;98966.31;;;20.24;100.00
12203;BME280;6164;42.178;24.622;2023-07-02T04:52:23;98965.75;;;20.22;100.00
12203;BME280;6164;42.178;24.622;2023-07-02T04:54:50;98965.31;;;20.13;100.00
12203;BME280;6164;42.178;24.622;2023-07-02T04:57:16;98966.50;;;20.17;100.00
12203;BME280;6164;42.178;24.622;2023-07-02T04:59:43;98970.00;;;20.18;100.00
12203;BME280;6164;42.178;24.622;2023-07-02T05:02:09;98964.72;;;20.23;100.00
12203;BME280;6164;42.178;24.622;2023-07-02T05:04:37;98949.56;;;20.33;100.00
12203;BME280;6164;42.178;24.622;2023-07-02T05:07:04;98941.09;;;20.41;100.00
12203;BME280;6164;42.178;24.622;2023-07-02T05:09:30;98950.38;;;20.50;100.00
12203;BME280;6164;42.178;24.622;2023-07-02T05:11:57;98946.59;;;20.51;100.00
12203;BME280;6164;42.178;24.622;2023-07-02T05:14:23;98975.09;;;20.36;100.00
12203;BME280;6164;42.178;24.622;2023-07-02T05:16:50;98989.72;;;20.28;100.00
12203;BME280;6164;42.178;24.622;2023-07-02T05:19:16;98988.25;;;20.21;100.00
12203;BME280;6164;42.178;24.622;2023-07-02T05:21:44;98997.97;;;20.10;100.00
12203;BME280;6164;42.178;24.622;2023-07-02T05:24:10;99017.53;;;20.11;100.00
12203;BME280;6164;42.178;24.622;2023-07-02T05:26:37;99023.47;;;20.13;100.00
12203;BME280;6164;42.178;24.622;2023-07-02T05:29:03;99019.66;;;20.09;100.00
12203;BME280;6164;42.178;24.622;2023-07-02T05:31:31;99016.97;;;20.09;100.00
12203;BME280;6164;42.178;24.622;2023-07-02T05:33:59;99023.84;;;20.16;100.00
12203;BME280;6164;42.178;24.622;2023-07-02T05:36:26;99022.78;;;20.17;100.00
12203;BME280;6164;42.178;24.622;2023-07-02T05:38:53;99032.91;;;20.32;100.00
12203;BME280;6164;42.178;24.622;2023-07-02T05:41:20;99031.81;;;20.28;100.00
12203;BME280;6164;42.178;24.622;2023-07-02T05:43:46;99014.66;;;20.29;100.00
12203;BME280;6164;42.178;24.622;2023-07-02T05:46:13;99016.25;;;20.30;100.00
12203;BME280;6164;42.178;24.622;2023-07-02T05:48:40;99012.06;;;20.34;100.00
12203;BME280;6164;42.178;24.622;2023-07-02T05:51:07;99020.09;;;20.34;100.00
12203;BME280;6164;42.178;24.622;2023-07-02T05:53:33;99002.41;;;20.33;100.00
12203;BME280;6164;42.178;24.622;2023-07-02T05:56:01;98998.91;;;20.32;100.00
12203;BME280;6164;42.178;24.622;2023-07-02T05:58:28;99003.03;;;20.23;100.00
12203;BME280;6164;42.178;24.622;2023-07-02T06:00:55;99003.44;;;20.15;100.00
12203;BME280;6164;42.178;24.622;2023-07-02T06:03:21;99003.66;;;20.14;100.00
12203;BME280;6164;42.178;24.622;2023-07-02T06:05:48;99014.16;;;20.15;100.00
12203;BME280;6164;42.178;24.622;2023-07-02T06:08:15;99008.06;;;20.20;100.00
12203;BME280;6164;42.178;24.622;2023-07-02T06:10:41;99007.09;;;20.26;100.00
12203;BME280;6164;42.178;24.622;2023-07-02T06:13:09;99003.94;;;20.29;100.00
12203;BME280;6164;42.178;24.622;2023-07-02T06:15:36;99002.22;;;20.39;100.00
12203;BME280;6164;42.178;24.622;2023-07-02T06:18:02;99001.31;;;20.50;100.00
12203;BME280;6164;42.178;24.622;2023-07-02T06:20:29;99004.94;;;20.61;100.00
12203;BME280;6164;42.178;24.622;2023-07-02T06:22:55;98988.97;;;20.71;100.00
12203;BME280;6164;42.178;24.622;2023-07-02T06:25:22;98978.72;;;20.84;100.00
12203;BME280;6164;42.178;24.622;2023-07-02T06:27:48;98986.56;;;20.91;100.00
12203;BME280;6164;42.178;24.622;2023-07-02T06:30:16;98985.28;;;20.93;100.00
12203;BME280;6164;42.178;24.622;2023-07-02T06:32:43;98983.03;;;21.07;100.00
12203;BME280;6164;42.178;24.622;2023-07-02T06:35:09;98978.91;;;21.21;100.00
12203;BME280;6164;42.178;24.622;2023-07-02T06:37:36;98975.97;;;21.44;100.00
12203;BME280;6164;42.178;24.622;2023-07-02T06:40:02;98980.19;;;21.67;100.00
12203;BME280;6164;42.178;24.622;2023-07-02T06:42:29;98969.06;;;21.80;100.00
12203;BME280;6164;42.178;24.622;2023-07-02T06:44:56;98974.22;;;21.86;100.00
12203;BME280;6164;42.178;24.622;2023-07-02T06:47:24;98968.72;;;22.03;100.00
12203;BME280;6164;42.178;24.622;2023-07-02T06:49:51;98968.53;;;22.14;100.00
12203;BME280;6164;42.178;24.622;2023-07-02T06:52:18;98958.69;;;22.25;100.00
12203;BME280;6164;42.178;24.622;2023-07-02T06:54:44;98958.78;;;22.40;100.00
12203;BME280;6164;42.178;24.622;2023-07-02T06:57:12;98955.34;;;22.50;100.00
12203;BME280;6164;42.178;24.622;2023-07-02T06:59:38;98945.69;;;22.54;100.00
12203;BME280;6164;42.178;24.622;2023-07-02T07:02:05;98940.63;;;22.57;100.00
12203;BME280;6164;42.178;24.622;2023-07-02T07:04:33;98940.38;;;22.64;100.00
12203;BME280;6164;42.178;24.622;2023-07-02T07:07:00;98942.81;;;22.65;100.00
12203;BME280;6164;42.178;24.622;2023-07-02T07:09:28;98934.47;;;22.62;100.00
12203;BME280;6164;42.178;24.622;2023-07-02T07:11:54;98943.31;;;22.62;100.00
12203;BME280;6164;42.178;24.622;2023-07-02T07:14:21;98943.34;;;22.67;100.00
12203;BME280;6164;42.178;24.622;2023-07-02T07:16:47;98945.84;;;22.79;100.00
12203;BME280;6164;42.178;24.622;2023-07-02T07:19:14;98932.13;;;22.85;100.00
12203;BME280;6164;42.178;24.622;2023-07-02T07:21:42;98933.00;;;22.96;100.00
12203;BME280;6164;42.178;24.622;2023-07-02T07:24:08;98928.22;;;23.13;100.00
12203;BME280;6164;42.178;24.622;2023-07-02T07:26:35;98931.19;;;23.21;100.00
12203;BME280;6164;42.178;24.622;2023-07-02T07:29:01;98921.28;;;23.27;100.00
12203;BME280;6164;42.178;24.622;2023-07-02T07:31:29;98933.13;;;23.41;100.00
12203;BME280;6164;42.178;24.622;2023-07-02T07:33:56;98927.50;;;23.53;100.00
12203;BME280;6164;42.178;24.622;2023-07-02T07:36:22;98927.25;;;23.74;100.00
12203;BME280;6164;42.178;24.622;2023-07-02T07:38:50;98918.63;;;23.87;100.00
12203;BME280;6164;42.178;24.622;2023-07-02T07:41:16;98922.97;;;23.98;100.00
12203;BME280;6164;42.178;24.622;2023-07-02T07:43:43;98923.75;;;24.04;100.00
12203;BME280;6164;42.178;24.622;2023-07-02T07:46:09;98909.97;;;24.20;100.00
12203;BME280;6164;42.178;24.622;2023-07-02T07:48:36;98910.22;;;24.39;100.00
12203;BME280;6164;42.178;24.622;2023-07-02T07:51:02;98904.84;;;24.29;100.00
12203;BME280;6164;42.178;24.622;2023-07-02T07:53:29;98902.16;;;24.29;100.00
12203;BME280;6164;42.178;24.622;2023-07-02T07:55:57;98899.97;;;24.46;100.00
12203;BME280;6164;42.178;24.622;2023-07-02T07:58:23;98898.28;;;24.55;100.00
12203;BME280;6164;42.178;24.622;2023-07-02T08:00:50;98896.66;;;24.64;100.00
12203;BME280;6164;42.178;24.622;2023-07-02T08:03:16;98896.41;;;24.55;100.00
12203;BME280;6164;42.178;24.622;2023-07-02T08:05:43;98897.97;;;24.77;100.00
12203;BME280;6164;42.178;24.622;2023-07-02T08:08:09;98904.66;;;24.94;100.00
12203;BME280;6164;42.178;24.622;2023-07-02T08:10:36;98903.00;;;24.98;100.00
12203;BME280;6164;42.178;24.622;2023-07-02T08:13:04;98904.59;;;25.04;100.00
12203;BME280;6164;42.178;24.622;2023-07-02T08:15:30;98913.19;;;25.11;100.00
12203;BME280;6164;42.178;24.622;2023-07-02T08:17:57;98909.44;;;25.12;100.00
12203;BME280;6164;42.178;24.622;2023-07-02T08:20:24;98910.81;;;25.05;100.00
12203;BME280;6164;42.178;24.622;2023-07-02T08:22:50;98894.22;;;25.21;100.00
12203;BME280;6164;42.178;24.622;2023-07-02T08:25:17;98890.34;;;25.42;100.00
12203;BME280;6164;42.178;24.622;2023-07-02T08:27:46;98894.03;;;25.56;100.00
12203;BME280;6164;42.178;24.622;2023-07-02T08:30:14;98896.06;;;25.74;100.00
12203;BME280;6164;42.178;24.622;2023-07-02T08:32:40;98889.09;;;25.97;100.00
12203;BME280;6164;42.178;24.622;2023-07-02T08:35:07;98884.38;;;26.13;100.00
12203;BME280;6164;42.178;24.622;2023-07-02T08:37:34;98893.91;;;26.05;100.00
12203;BME280;6164;42.178;24.622;2023-07-02T08:40:00;98889.31;;;26.06;100.00
12203;BME280;6164;42.178;24.622;2023-07-02T08:42:27;98888.63;;;26.19;100.00
12203;BME280;6164;42.178;24.622;2023-07-02T08:44:54;98882.16;;;26.15;100.00
12203;BME280;6164;42.178;24.622;2023-07-02T08:47:23;98884.31;;;26.18;100.00
12203;BME280;6164;42.178;24.622;2023-07-02T08:49:50;98881.09;;;26.39;100.00
12203;BME280;6164;42.178;24.622;2023-07-02T08:52:16;98877.72;;;26.52;100.00
12203;BME280;6164;42.178;24.622;2023-07-02T08:54:43;98887.59;;;26.67;100.00
12203;BME280;6164;42.178;24.622;2023-07-02T08:57:09;98884.47;;;26.78;100.00
12203;BME280;6164;42.178;24.622;2023-07-02T08:59:36;98885.50;;;27.01;100.00
12203;BME280;6164;42.178;24.622;2023-07-02T09:02:02;98901.34;;;26.70;100.00
12203;BME280;6164;42.178;24.622;2023-07-02T09:04:30;98894.41;;;26.59;100.00
12203;BME280;6164;42.178;24.622;2023-07-02T09:07:03;98881.78;;;26.50;100.00
12203;BME280;6164;42.178;24.622;2023-07-02T09:09:30;98881.16;;;26.58;100.00
12203;BME280;6164;42.178;24.622;2023-07-02T09:11:57;98881.38;;;26.61;100.00
12203;BME280;6164;42.178;24.622;2023-07-02T09:14:23;98884.16;;;26.56;100.00
12203;BME280;6164;42.178;24.622;2023-07-02T09:16:50;98880.91;;;26.54;100.00
12203;BME280;6164;42.178;24.622;2023-07-02T09:19:27;98882.66;;;26.69;100.00
12203;BME280;6164;42.178;24.622;2023-07-02T09:21:56;98881.06;;;26.68;100.00
12203;BME280;6164;42.178;24.622;2023-07-02T09:24:24;98872.81;;;26.78;100.00
12203;BME280;6164;42.178;24.622;2023-07-02T09:26:51;98866.09;;;26.75;100.00
12203;BME280;6164;42.178;24.622;2023-07-02T09:29:19;98863.88;;;26.77;100.00
12203;BME280;6164;42.178;24.622;2023-07-02T09:31:49;98867.69;;;26.76;100.00
12203;BME280;6164;42.178;24.622;2023-07-02T09:34:16;98863.59;;;26.79;100.00
12203;BME280;6164;42.178;24.622;2023-07-02T09:36:42;98867.34;;;26.83;100.00
12203;BME280;6164;42.178;24.622;2023-07-02T09:39:12;98871.09;;;26.87;100.00
12203;BME280;6164;42.178;24.622;2023-07-02T09:41:39;98861.81;;;27.11;100.00
12203;BME280;6164;42.178;24.622;2023-07-02T09:44:06;98876.47;;;27.29;100.00
12203;BME280;6164;42.178;24.622;2023-07-02T09:46:33;98872.81;;;27.15;100.00
12203;BME280;6164;42.178;24.622;2023-07-02T09:49:00;98876.13;;;27.12;100.00
12203;BME280;6164;42.178;24.622;2023-07-02T09:51:27;98872.75;;;27.20;98.82
12203;BME280;6164;42.178;24.622;2023-07-02T09:53:53;98872.50;;;27.40;100.00
12203;BME280;6164;42.178;24.622;2023-07-02T09:56:21;98882.59;;;27.53;99.83
12203;BME280;6164;42.178;24.622;2023-07-02T09:58:48;98873.91;;;27.38;96.65
12203;BME280;6164;42.178;24.622;2023-07-02T10:01:15;98884.66;;;27.43;96.39
12203;BME280;6164;42.178;24.622;2023-07-02T10:03:41;98882.56;;;27.40;99.05
12203;BME280;6164;42.178;24.622;2023-07-02T10:06:07;98881.97;;;27.43;97.17
12203;BME280;6164;42.178;24.622;2023-07-02T10:08:34;98883.09;;;27.55;97.76
12203;BME280;6164;42.178;24.622;2023-07-02T10:11:07;98881.44;;;27.73;97.03
12203;BME280;6164;42.178;24.622;2023-07-02T10:13:36;98879.84;;;27.90;97.43
12203;BME280;6164;42.178;24.622;2023-07-02T10:16:03;98890.44;;;27.87;96.19
12203;BME280;6164;42.178;24.622;2023-07-02T10:18:29;98883.16;;;27.69;92.56
12203;BME280;6164;42.178;24.622;2023-07-02T10:20:56;98885.97;;;27.64;92.80
12203;BME280;6164;42.178;24.622;2023-07-02T10:23:31;98884.06;;;27.64;92.98
12203;BME280;6164;42.178;24.622;2023-07-02T10:25:58;98887.31;;;27.80;95.23
12203;BME280;6164;42.178;24.622;2023-07-02T10:28:36;98880.28;;;27.79;93.73
12203;BME280;6164;42.178;24.622;2023-07-02T10:31:03;98880.16;;;27.70;92.34
12203;BME280;6164;42.178;24.622;2023-07-02T10:33:29;98880.50;;;27.82;93.60
12203;BME280;6164;42.178;24.622;2023-07-02T10:35:56;98881.78;;;27.85;95.10
12203;BME280;6164;42.178;24.622;2023-07-02T10:38:23;98875.78;;;27.88;98.55
12203;BME280;6164;42.178;24.622;2023-07-02T10:40:53;98854.31;;;27.91;100.00
12203;BME280;6164;42.178;24.622;2023-07-02T10:43:24;98847.81;;;27.92;100.00
12203;BME280;6164;42.178;24.622;2023-07-02T10:45:51;98848.03;;;27.77;100.00
12203;BME280;6164;42.178;24.622;2023-07-02T10:48:18;98859.22;;;27.57;100.00
12203;BME280;6164;42.178;24.622;2023-07-02T10:50:44;98862.38;;;27.64;100.00
12203;BME280;6164;42.178;24.622;2023-07-02T10:53:14;98872.91;;;27.66;100.00
12203;BME280;6164;42.178;24.622;2023-07-02T10:55:40;98889.72;;;27.49;100.00
12203;BME280;6164;42.178;24.622;2023-07-02T10:58:07;98885.00;;;27.17;100.00
12203;BME280;6164;42.178;24.622;2023-07-02T11:00:42;98875.97;;;26.85;100.00
12203;BME280;6164;42.178;24.622;2023-07-02T11:03:17;98865.28;;;26.75;100.00
12203;BME280;6164;42.178;24.622;2023-07-02T11:05:44;98856.72;;;26.63;100.00
12203;BME280;6164;42.178;24.622;2023-07-02T11:08:10;98854.38;;;26.56;100.00
12203;BME280;6164;42.178;24.622;2023-07-02T11:10:37;98852.78;;;26.55;100.00
12203;BME280;6164;42.178;24.622;2023-07-02T11:13:10;98849.84;;;26.52;100.00
12203;BME280;6164;42.178;24.622;2023-07-02T11:15:36;98848.97;;;26.56;100.00
12203;BME280;6164;42.178;24.622;2023-07-02T11:18:08;98854.22;;;26.71;100.00
12203;BME280;6164;42.178;24.622;2023-07-02T11:20:36;98854.97;;;26.77;100.00
12203;BME280;6164;42.178;24.622;2023-07-02T11:23:02;98854.44;;;26.75;100.00
12203;BME280;6164;42.178;24.622;2023-07-02T11:25:29;98848.31;;;26.88;100.00
12203;BME280;6164;42.178;24.622;2023-07-02T11:28:01;98853.22;;;27.04;100.00
12203;BME280;6164;42.178;24.622;2023-07-02T11:30:28;98853.00;;;27.19;100.00
12203;BME280;6164;42.178;24.622;2023-07-02T11:32:55;98854.00;;;27.23;100.00
12203;BME280;6164;42.178;24.622;2023-07-02T11:35:21;98851.81;;;27.26;100.00
12203;BME280;6164;42.178;24.622;2023-07-02T11:37:49;98852.28;;;27.33;100.00
12203;BME280;6164;42.178;24.622;2023-07-02T11:40:17;98848.63;;;27.42;100.00
12203;BME280;6164;42.178;24.622;2023-07-02T11:42:43;98851.84;;;27.44;100.00
12203;BME280;6164;42.178;24.622;2023-07-02T11:45:10;98856.16;;;27.45;100.00
12203;BME280;6164;42.178;24.622;2023-07-02T11:47:37;98864.22;;;27.32;100.00
12203;BME280;6164;42.178;24.622;2023-07-02T11:50:04;98854.00;;;27.23;100.00
12203;BME280;6164;42.178;24.622;2023-07-02T11:52:31;98845.72;;;27.15;100.00
12203;BME280;6164;42.178;24.622;2023-07-02T11:54:59;98833.22;;;27.19;100.00
12203;BME280;6164;42.178;24.622;2023-07-02T11:57:25;98842.22;;;27.33;100.00
12203;BME280;6164;42.178;24.622;2023-07-02T11:59:52;98840.25;;;27.39;100.00
12203;BME280;6164;42.178;24.622;2023-07-02T12:02:18;98843.72;;;27.44;100.00
12203;BME280;6164;42.178;24.622;2023-07-02T12:04:45;98845.44;;;27.54;100.00
12203;BME280;6164;42.178;24.622;2023-07-02T12:07:11;98837.31;;;27.54;100.00
12203;BME280;6164;42.178;24.622;2023-07-02T12:09:38;98845.97;;;27.56;100.00
12203;BME280;6164;42.178;24.622;2023-07-02T12:12:07;98842.41;;;27.74;100.00
12203;BME280;6164;42.178;24.622;2023-07-02T12:14:33;98836.72;;;27.89;100.00
12203;BME280;6164;42.178;24.622;2023-07-02T12:17:00;98830.66;;;28.10;100.00
12203;BME280;6164;42.178;24.622;2023-07-02T12:19:26;98833.94;;;28.21;100.00
12203;BME280;6164;42.178;24.622;2023-07-02T12:21:53;98825.22;;;28.37;100.00
12203;BME280;6164;42.178;24.622;2023-07-02T12:24:19;98816.78;;;28.53;99.21
12203;BME280;6164;42.178;24.622;2023-07-02T12:26:45;98822.56;;;28.73;97.91
12203;BME280;6164;42.178;24.622;2023-07-02T12:29:13;98818.97;;;28.78;100.00
12203;BME280;6164;42.178;24.622;2023-07-02T12:31:40;98813.97;;;28.93;98.87
12203;BME280;6164;42.178;24.622;2023-07-02T12:34:06;98815.28;;;29.09;99.06
12203;BME280;6164;42.178;24.622;2023-07-02T12:36:33;98813.63;;;29.22;100.00
12203;BME280;6164;42.178;24.622;2023-07-02T12:38:59;98816.56;;;29.12;96.27
12203;BME280;6164;42.178;24.622;2023-07-02T12:41:26;98820.94;;;28.99;96.07
12203;BME280;6164;42.178;24.622;2023-07-02T12:43:53;98809.28;;;28.85;99.23
12203;BME280;6164;42.178;24.622;2023-07-02T12:46:21;98801.97;;;28.72;98.61
12203;BME280;6164;42.178;24.622;2023-07-02T12:48:47;98800.88;;;28.60;97.49